Time;durP1;ratioP1;P1;durP2;ratioP2;P2;SDS_P1;SDS_P2;PMS_P1;PMS_P2;Temp;Humidity;BMP_temperature;BMP_pressure;BME280_temperature;BME280_humidity;BME280_pressure;Samples;Min_cycle;Max_cycle;Signal;HPM_P1;HPM_P2
2021/12/02 00:01:16;;;;;;;4.05;2.47;;;;;;;-3.30;70.26;97739.06;4961440;29;20051;-56
2021/12/02 00:04:03;;;;;;;3.63;2.25;;;;;;;-3.36;70.26;97743.28;4952766;29;20063;-56
2021/12/02 00:06:49;;;;;;;4.72;2.33;;;;;;;-3.60;70.72;97757.53;4955692;29;20316;-56
2021/12/02 00:09:37;;;;;;;3.42;2.10;;;;;;;-3.62;71.19;97756.66;4963028;29;20165;-57
2021/12/02 00:12:22;;;;;;;4.32;2.53;;;;;;;-3.62;71.68;97771.00;4960149;28;20027;-55
2021/12/02 00:15:17;;;;;;;3.53;2.40;;;;;;;-3.53;72.94;97771.88;4961298;29;20023;-55
2021/12/02 00:21:20;;;;;;;3.42;2.00;;;;;;;-3.75;71.79;97796.22;4946636;29;20090;-55
2021/12/02 00:24:09;;;;;;;2.53;2.03;;;;;;;-3.94;72.41;97757.38;4961965;29;20038;-56
2021/12/02 00:26:57;;;;;;;2.78;2.38;;;;;;;-3.73;72.53;97773.50;4952268;29;20027;-55
2021/12/02 00:29:45;;;;;;;3.08;2.47;;;;;;;-3.80;73.39;97787.78;4958628;28;20027;-55
2021/12/02 00:32:31;;;;;;;3.33;2.20;;;;;;;-3.73;73.04;97799.63;4947244;28;20395;-55
2021/12/02 00:35:17;;;;;;;4.20;2.30;;;;;;;-3.56;73.93;97797.19;4947086;29;20035;-55
2021/12/02 00:38:03;;;;;;;3.63;2.30;;;;;;;-3.47;73.50;97801.44;4960996;29;20034;-56
2021/12/02 00:40:51;;;;;;;3.42;2.58;;;;;;;-3.58;73.29;97808.13;4959853;29;20047;-57
2021/12/02 00:43:38;;;;;;;2.88;2.17;;;;;;;-3.55;73.31;97815.72;4959556;29;20031;-56
2021/12/02 00:46:27;;;;;;;5.85;2.83;;;;;;;-3.93;73.07;97763.28;4960340;29;20031;-56
2021/12/02 00:49:17;;;;;;;2.65;2.30;;;;;;;-3.52;73.43;97851.16;4960704;28;20541;-56
2021/12/02 00:52:03;;;;;;;2.60;2.40;;;;;;;-3.43;73.61;97828.44;4955618;29;20051;-56
2021/12/02 00:54:49;;;;;;;3.58;2.50;;;;;;;-3.37;73.98;97823.38;4952430;28;20026;-56
2021/12/02 00:57:39;;;;;;;4.68;3.20;;;;;;;-3.28;73.59;97839.47;4960792;29;20300;-56
2021/12/02 01:00:25;;;;;;;4.88;2.53;;;;;;;-3.47;73.28;97842.75;4954312;29;20027;-56
2021/12/02 01:03:14;;;;;;;3.05;2.50;;;;;;;-3.93;72.50;97775.91;4951500;29;20074;-56
2021/12/02 01:06:01;;;;;;;4.32;2.75;;;;;;;-3.53;72.53;97845.25;4961652;29;20256;-56
2021/12/02 01:08:46;;;;;;;2.75;2.20;;;;;;;-3.57;73.18;97870.53;4960180;29;20613;-56
2021/12/02 01:11:33;;;;;;;3.38;2.47;;;;;;;-3.54;72.60;97870.53;4961691;29;20039;-56
2021/12/02 01:14:19;;;;;;;3.25;2.28;;;;;;;-3.66;72.55;97859.53;4952342;28;20040;-55
2021/12/02 01:17:05;;;;;;;3.38;2.63;;;;;;;-3.62;73.14;97867.97;4954639;29;20035;-56
2021/12/02 01:19:51;;;;;;;2.63;2.03;;;;;;;-3.67;72.93;97870.47;4960313;29;20045;-55
2021/12/02 01:22:38;;;;;;;3.60;2.63;;;;;;;-3.57;74.14;97866.31;4960955;28;20019;-55
2021/12/02 01:25:27;;;;;;;2.22;2.03;;;;;;;-3.69;73.11;97877.22;4965025;29;20346;-55
2021/12/02 01:28:13;;;;;;;3.72;2.15;;;;;;;-3.68;73.31;97870.47;4964376;29;20035;-55
2021/12/02 01:30:59;;;;;;;3.10;1.98;;;;;;;-3.76;73.05;97872.97;4963596;29;20332;-55
2021/12/02 01:33:46;;;;;;;3.55;2.15;;;;;;;-3.59;73.33;97883.19;4949929;29;20055;-56
2021/12/02 01:36:34;;;;;;;3.20;1.90;;;;;;;-3.74;72.80;97903.31;4949108;29;20055;-56
2021/12/02 01:39:20;;;;;;;1.92;1.80;;;;;;;-3.57;72.08;97898.38;4948866;29;20039;-56
2021/12/02 01:42:10;;;;;;;3.72;2.00;;;;;;;-3.91;72.28;97833.25;4963674;29;20235;-56
2021/12/02 01:44:58;;;;;;;2.97;2.00;;;;;;;-3.57;72.47;97906.78;4958294;29;20111;-56
2021/12/02 01:47:48;;;;;;;2.28;1.80;;;;;;;-3.54;72.25;97891.63;4965274;29;20031;-55
2021/12/02 01:50:35;;;;;;;2.05;1.85;;;;;;;-3.94;72.21;97807.09;4964482;29;20265;-55
2021/12/02 01:53:22;;;;;;;2.83;1.88;;;;;;;-3.59;70.24;97887.38;4975221;28;20035;-57
2021/12/02 01:56:15;;;;;;;3.17;1.90;;;;;;;-3.59;70.70;97877.25;4948806;29;20062;-56
2021/12/02 01:59:10;;;;;;;2.13;1.67;;;;;;;-3.91;70.59;97834.94;4964623;29;20027;-56
2021/12/02 02:01:57;;;;;;;1.65;1.50;;;;;;;-3.61;70.98;97902.53;4964728;29;20043;-55
2021/12/02 02:04:45;;;;;;;3.13;1.73;;;;;;;-3.98;70.98;97839.09;4961780;28;20388;-56
2021/12/02 02:07:33;;;;;;;2.20;1.90;;;;;;;-4.06;72.37;97833.13;4978522;28;20078;-56
2021/12/02 02:10:19;;;;;;;3.58;1.48;;;;;;;-3.65;72.72;97889.03;4963470;29;20063;-56
2021/12/02 02:13:08;;;;;;;1.95;1.63;;;;;;;-3.70;72.17;97888.16;4964051;29;20216;-56
2021/12/02 02:15:54;;;;;;;2.22;1.50;;;;;;;-3.78;71.74;97899.91;4964396;29;20031;-55
2021/12/02 02:18:41;;;;;;;2.38;1.58;;;;;;;-3.57;71.30;97918.59;4964914;29;20018;-56
2021/12/02 02:21:27;;;;;;;1.85;1.65;;;;;;;-3.52;71.54;97916.94;4964533;29;20031;-56
2021/12/02 02:24:14;;;;;;;1.63;1.38;;;;;;;-3.61;68.40;97911.81;4964524;29;20027;-56
2021/12/02 02:27:02;;;;;;;1.85;1.38;;;;;;;-3.45;68.62;97921.19;4963756;29;20320;-55
2021/12/02 02:29:48;;;;;;;1.88;1.27;;;;;;;-3.44;69.53;97927.09;4951073;29;20042;-56
2021/12/02 02:32:34;;;;;;;1.63;1.25;;;;;;;-3.52;68.73;97912.72;4948822;29;20038;-55
2021/12/02 02:35:20;;;;;;;1.85;1.40;;;;;;;-3.42;70.27;97916.16;4957649;29;20027;-56
2021/12/02 02:38:06;;;;;;;1.52;1.42;;;;;;;-3.51;69.50;97932.13;4960991;29;20027;-56
2021/12/02 02:43:59;;;;;;;2.70;1.58;;;;;;;-3.45;70.66;97931.31;4960925;29;20449;-55
2021/12/02 02:46:46;;;;;;;1.23;1.20;;;;;;;-3.43;69.77;97937.25;4962501;29;20063;-55
2021/12/02 02:49:32;;;;;;;1.95;1.20;;;;;;;-3.47;66.55;97943.94;4964009;29;20029;-56
2021/12/02 02:52:18;;;;;;;1.92;1.40;;;;;;;-3.44;68.59;97944.81;4946786;29;20059;-56
2021/12/02 02:55:04;;;;;;;1.20;1.10;;;;;;;-3.69;67.45;97926.94;4963363;29;20027;-55
2021/12/02 03:00:58;;;;;;;1.75;1.23;;;;;;;-3.42;69.41;97940.59;4963662;29;20371;-56
2021/12/02 03:03:59;;;;;;;1.60;1.38;;;;;;;-3.38;70.14;97943.16;4947225;28;20032;-56
2021/12/02 03:17:54;;;;;;;2.17;1.30;;;;;;;-3.43;65.81;97939.78;4961789;29;20034;-56
2021/12/02 03:20:39;;;;;;;1.42;1.33;;;;;;;-3.24;67.12;97962.66;4961569;29;20082;-55
2021/12/02 03:23:25;;;;;;;1.63;1.38;;;;;;;-3.29;66.40;97965.16;4960384;29;20331;-55
2021/12/02 03:26:11;;;;;;;1.40;1.30;;;;;;;-3.24;67.74;97975.31;4961516;29;20046;-56
2021/12/02 03:28:58;;;;;;;1.50;1.40;;;;;;;-3.49;68.14;97960.81;4962240;29;20034;-55
2021/12/02 03:31:44;;;;;;;1.42;1.30;;;;;;;-3.44;67.61;97972.66;4963362;29;20050;-56
2021/12/02 03:34:32;;;;;;;1.60;1.20;;;;;;;-3.46;68.53;97975.19;4960838;29;20103;-56
2021/12/02 03:37:19;;;;;;;1.58;1.23;;;;;;;-3.49;67.86;97980.22;4960788;29;20043;-57
2021/12/02 03:40:06;;;;;;;1.40;1.30;;;;;;;-3.51;66.53;97969.22;4961553;29;20054;-56
2021/12/02 03:42:53;;;;;;;1.30;1.20;;;;;;;-3.73;66.96;97908.38;4962964;29;20035;-55
2021/12/02 03:45:39;;;;;;;2.05;1.40;;;;;;;-3.39;67.00;97971.84;4962441;28;20051;-56
2021/12/02 03:48:25;;;;;;;3.00;1.40;;;;;;;-3.34;67.28;97975.25;4963308;29;20023;-55
2021/12/02 03:51:12;;;;;;;2.53;1.27;;;;;;;-3.48;66.72;97986.94;4961042;28;20109;-56
2021/12/02 03:53:58;;;;;;;3.97;1.33;;;;;;;-3.30;68.01;97984.53;4959402;29;20038;-56
2021/12/02 03:56:44;;;;;;;3.72;1.70;;;;;;;-3.21;68.19;97980.38;4961646;29;20027;-56
2021/12/02 03:59:31;;;;;;;2.38;1.55;;;;;;;-3.30;66.36;97979.47;4960793;29;20027;-56
2021/12/02 04:02:17;;;;;;;2.28;1.80;;;;;;;-3.19;67.79;97986.28;4960634;29;20043;-57
2021/12/02 04:05:04;;;;;;;1.40;1.30;;;;;;;-3.17;67.68;97988.00;4957943;28;20087;-56
2021/12/02 04:07:50;;;;;;;2.15;1.42;;;;;;;-3.15;67.93;97996.47;4946082;29;20034;-56
2021/12/02 04:10:36;;;;;;;1.88;1.48;;;;;;;-3.18;66.77;98000.66;4960141;28;20039;-56
2021/12/02 04:13:27;;;;;;;2.17;1.23;;;;;;;-3.30;66.40;98004.78;4961928;29;20031;-56
2021/12/02 04:16:18;;;;;;;1.38;1.15;;;;;;;-3.38;66.28;98016.53;4961502;29;20098;-56
2021/12/02 04:19:06;;;;;;;1.40;1.30;;;;;;;-3.25;67.44;98014.09;4962223;29;20035;-56
2021/12/02 04:21:54;;;;;;;1.27;1.10;;;;;;;-3.29;68.46;98013.25;4943492;29;20114;-56
2021/12/02 04:24:39;;;;;;;1.52;1.30;;;;;;;-3.45;67.11;98021.56;4956733;29;20030;-56
2021/12/02 04:27:25;;;;;;;2.55;1.90;;;;;;;-3.39;69.06;98027.53;4961433;29;20023;-57
2021/12/02 04:30:15;;;;;;;1.50;1.40;;;;;;;-3.40;68.50;98025.81;4961822;29;20031;-57
2021/12/02 04:33:01;;;;;;;1.80;1.48;;;;;;;-3.39;68.25;98019.06;4958896;29;20039;-56
2021/12/02 04:35:47;;;;;;;1.90;1.52;;;;;;;-3.37;68.33;98025.00;4961484;29;20023;-58
2021/12/02 04:38:33;;;;;;;1.45;1.33;;;;;;;-3.40;67.59;98020.75;4961390;29;20039;-56
2021/12/02 04:41:19;;;;;;;2.20;1.35;;;;;;;-3.28;68.54;98036.88;4957782;29;20046;-57
2021/12/02 04:44:05;;;;;;;1.98;1.35;;;;;;;-3.43;68.07;98028.34;4957688;29;20237;-56
2021/12/02 04:46:53;;;;;;;2.70;1.52;;;;;;;-3.51;67.57;98030.78;4955618;29;20023;-56
2021/12/02 04:49:41;;;;;;;2.78;1.70;;;;;;;-3.89;68.96;97967.25;4948492;29;20228;-58
2021/12/02 04:52:27;;;;;;;2.30;1.75;;;;;;;-3.58;68.30;98026.50;4956751;29;20118;-58
2021/12/02 04:55:12;;;;;;;3.00;1.80;;;;;;;-3.50;68.49;98034.19;4951009;29;20035;-57
2021/12/02 04:57:59;;;;;;;2.05;1.60;;;;;;;-3.38;68.86;98046.91;4957998;28;20031;-57
2021/12/02 05:00:44;;;;;;;2.00;1.65;;;;;;;-3.55;66.84;98043.41;4962773;28;20023;-57
2021/12/02 05:03:30;;;;;;;2.38;1.90;;;;;;;-3.55;68.01;98051.00;4959820;29;20023;-57
2021/12/02 05:06:16;;;;;;;2.13;1.90;;;;;;;-3.48;68.37;98050.22;4960565;29;20201;-57
2021/12/02 05:09:03;;;;;;;3.05;1.80;;;;;;;-3.36;67.98;98062.97;4961473;29;20039;-56
2021/12/02 05:11:49;;;;;;;2.92;2.10;;;;;;;-3.37;67.35;98068.84;4960360;29;20030;-57
2021/12/02 05:14:35;;;;;;;2.08;1.77;;;;;;;-3.32;67.30;98064.69;4958910;29;20031;-57
2021/12/02 05:17:21;;;;;;;2.22;2.03;;;;;;;-3.46;67.21;98063.75;4959373;29;20031;-56
2021/12/02 05:20:07;;;;;;;2.10;1.70;;;;;;;-3.38;66.64;98063.78;4958902;29;20081;-57
2021/12/02 05:22:53;;;;;;;1.83;1.70;;;;;;;-3.40;65.97;98066.31;4959785;29;20102;-56
2021/12/02 05:25:43;;;;;;;2.10;1.90;;;;;;;-3.46;66.18;98066.25;4960292;28;20035;-56
2021/12/02 05:28:29;;;;;;;2.20;1.50;;;;;;;-3.50;67.75;98065.38;4959612;29;20023;-56
2021/12/02 05:31:16;;;;;;;2.28;1.40;;;;;;;-3.43;65.37;98068.81;4959626;29;20035;-57
2021/12/02 05:34:01;;;;;;;2.47;1.77;;;;;;;-3.47;64.94;98069.63;4944276;29;20035;-57
2021/12/02 05:36:47;;;;;;;2.70;1.83;;;;;;;-3.52;65.93;98077.19;4958905;29;20082;-57
2021/12/02 05:39:33;;;;;;;2.40;1.98;;;;;;;-3.57;65.82;98088.94;4942772;29;20051;-57
2021/12/02 05:42:20;;;;;;;1.98;1.73;;;;;;;-3.54;63.50;98090.66;4961170;29;20047;-57
2021/12/02 05:45:06;;;;;;;2.20;1.95;;;;;;;-3.54;64.63;98081.38;4952501;29;20031;-58
2021/12/02 05:47:52;;;;;;;3.13;2.20;;;;;;;-3.59;65.72;98104.94;4959787;29;20038;-56
2021/12/02 05:50:38;;;;;;;2.70;2.20;;;;;;;-3.67;64.14;98097.28;4942050;29;20265;-56
2021/12/02 05:53:24;;;;;;;1.98;1.80;;;;;;;-3.58;65.32;98096.50;4961014;29;20027;-57
2021/12/02 05:56:10;;;;;;;4.68;1.90;;;;;;;-3.59;64.53;98115.03;4959924;29;20038;-57
2021/12/02 05:58:56;;;;;;;1.75;1.42;;;;;;;-3.51;64.87;98109.22;4959929;29;20030;-57
2021/12/02 06:01:42;;;;;;;4.00;1.90;;;;;;;-3.54;64.60;98111.72;4957685;29;20023;-56
2021/12/02 06:04:28;;;;;;;4.68;2.10;;;;;;;-3.42;66.02;98107.59;4956028;29;20035;-57
2021/12/02 06:07:14;;;;;;;2.97;2.15;;;;;;;-3.39;64.34;98118.63;4941593;29;20028;-57
2021/12/02 06:10:00;;;;;;;2.78;1.88;;;;;;;-3.34;65.77;98122.03;4960302;28;20031;-57
2021/12/02 06:12:46;;;;;;;3.00;2.00;;;;;;;-3.35;65.95;98122.00;4963744;29;20979;-57
2021/12/02 06:15:32;;;;;;;3.60;2.15;;;;;;;-3.30;66.23;98122.91;4961843;29;20019;-56
2021/12/02 06:18:18;;;;;;;5.90;2.45;;;;;;;-3.26;66.66;98101.00;4961058;29;20039;-57
2021/12/02 06:21:04;;;;;;;2.00;1.70;;;;;;;-3.32;65.19;98117.84;4962243;29;20027;-57
2021/12/02 06:23:49;;;;;;;5.55;1.80;;;;;;;-3.35;65.24;98127.94;4960474;29;20050;-57
2021/12/02 06:26:37;;;;;;;5.95;1.73;;;;;;;-3.42;64.48;98118.59;4961775;29;20035;-57
2021/12/02 06:29:23;;;;;;;3.72;1.63;;;;;;;-3.37;64.39;98146.47;4960434;29;20332;-57
2021/12/02 06:32:09;;;;;;;3.28;1.95;;;;;;;-3.34;65.56;98144.78;4960999;29;20027;-57
2021/12/02 06:34:55;;;;;;;2.72;1.70;;;;;;;-3.26;65.06;98159.19;4960571;29;20039;-57
2021/12/02 06:37:41;;;;;;;4.97;2.00;;;;;;;-3.38;63.52;98155.72;4961179;29;20023;-57
2021/12/02 06:40:28;;;;;;;3.22;2.00;;;;;;;-3.22;65.25;98155.88;4962148;29;20054;-57
2021/12/02 06:43:15;;;;;;;3.20;2.15;;;;;;;-3.28;64.79;98143.16;4956025;29;20102;-57
2021/12/02 06:46:01;;;;;;;2.58;2.15;;;;;;;-3.14;66.08;98164.38;4953247;29;20027;-57
2021/12/02 06:48:49;;;;;;;4.57;2.22;;;;;;;-3.18;65.57;98161.00;4962048;29;20518;-58
2021/12/02 06:51:34;;;;;;;5.13;2.25;;;;;;;-3.14;65.01;98165.22;4962829;28;20019;-57
2021/12/02 06:54:20;;;;;;;3.05;1.95;;;;;;;-3.00;66.48;98174.63;4962836;29;20123;-59
2021/12/02 06:57:07;;;;;;;3.70;1.90;;;;;;;-2.97;65.77;98172.97;4953635;29;20055;-57
2021/12/02 06:59:53;;;;;;;2.88;1.80;;;;;;;-2.97;65.68;98167.06;4951797;29;20109;-57
2021/12/02 07:02:39;;;;;;;2.15;1.80;;;;;;;-2.79;65.53;98173.97;4950999;29;20329;-57
2021/12/02 07:05:25;;;;;;;4.70;2.00;;;;;;;-2.90;64.56;98158.66;4956473;29;20111;-57
2021/12/02 07:08:12;;;;;;;2.20;1.95;;;;;;;-2.91;65.54;98168.78;4963281;28;20031;-57
2021/12/02 07:11:00;;;;;;;3.10;2.30;;;;;;;-2.83;65.71;98170.53;4961158;29;20041;-57
2021/12/02 07:13:48;;;;;;;2.25;1.85;;;;;;;-2.79;65.23;98161.28;4961088;29;20107;-60
2021/12/02 07:16:36;;;;;;;2.60;1.90;;;;;;;-2.71;64.77;98169.78;4949915;29;20094;-57
2021/12/02 07:19:22;;;;;;;3.58;1.80;;;;;;;-2.87;64.42;98162.91;4961837;29;20034;-56
2021/12/02 07:22:07;;;;;;;4.25;1.90;;;;;;;-2.75;64.33;98169.75;4959635;29;20038;-57
2021/12/02 07:24:53;;;;;;;2.53;1.73;;;;;;;-2.84;63.56;98162.94;4960864;29;20054;-57
2021/12/02 07:27:39;;;;;;;5.88;2.08;;;;;;;-2.63;64.68;98178.28;4960795;29;20035;-57
2021/12/02 07:30:26;;;;;;;3.03;1.80;;;;;;;-2.70;62.70;98183.31;4960242;29;20035;-57
2021/12/02 07:33:13;;;;;;;2.83;1.92;;;;;;;-3.00;63.25;98121.47;4962278;28;20055;-56
2021/12/02 07:35:59;;;;;;;2.97;1.95;;;;;;;-2.54;63.88;98164.81;4959645;29;20337;-56
2021/12/02 07:38:46;;;;;;;1.83;1.73;;;;;;;-2.43;64.36;98164.88;4960410;29;20094;-58
2021/12/02 07:41:32;;;;;;;4.72;2.42;;;;;;;-2.41;64.55;98163.19;4962434;29;20062;-57
2021/12/02 07:44:18;;;;;;;2.45;2.08;;;;;;;-2.34;64.59;98167.47;4961192;29;20035;-57
2021/12/02 07:47:07;;;;;;;4.80;1.83;;;;;;;-2.21;64.82;98186.13;4944688;29;20034;-59
2021/12/02 07:49:52;;;;;;;2.35;1.83;;;;;;;-2.12;65.55;98172.66;4960229;29;20340;-56
2021/12/02 07:52:49;;;;;;;2.40;1.60;;;;;;;-2.65;62.28;98110.69;4959362;29;20122;-57
2021/12/02 07:55:38;;;;;;;6.82;1.80;;;;;;;-2.21;63.25;98168.38;4961672;29;20090;-58
2021/12/02 07:58:24;;;;;;;2.53;2.28;;;;;;;-2.29;63.81;98152.28;4958936;29;20059;-57
2021/12/02 08:01:11;;;;;;;2.95;2.03;;;;;;;-2.10;63.23;98165.91;4958507;29;21113;-57
2021/12/02 08:03:57;;;;;;;4.20;1.85;;;;;;;-2.26;62.11;98164.97;4962172;29;20039;-58
2021/12/02 08:06:43;;;;;;;3.33;2.08;;;;;;;-2.24;63.66;98165.00;4959333;29;20031;-57
2021/12/02 08:09:29;;;;;;;3.58;2.00;;;;;;;-2.16;62.99;98170.94;4962184;29;20047;-57
2021/12/02 08:12:15;;;;;;;2.70;1.80;;;;;;;-2.08;63.20;98161.69;4959400;29;20316;-57
2021/12/02 08:15:06;;;;;;;4.00;2.13;;;;;;;-2.44;61.81;98158.13;4961310;29;20065;-57
2021/12/02 08:17:54;;;;;;;4.68;2.05;;;;;;;-2.23;63.74;98146.41;4954127;29;20031;-57
2021/12/02 08:20:40;;;;;;;4.13;2.70;;;;;;;-2.54;63.93;98110.75;4955169;29;20272;-57
2021/12/02 08:23:27;;;;;;;6.43;2.22;;;;;;;-2.24;63.76;98145.53;4960639;29;20051;-58
2021/12/02 08:26:16;;;;;;;4.57;2.35;;;;;;;-2.26;64.44;98135.41;4956312;28;20390;-58
2021/12/02 08:29:04;;;;;;;5.55;2.40;;;;;;;-2.27;64.82;98138.78;4959706;28;20154;-57
2021/12/02 08:31:50;;;;;;;5.78;2.70;;;;;;;-2.14;65.04;98151.50;4955380;28;20082;-57
2021/12/02 08:34:37;;;;;;;4.95;2.38;;;;;;;-2.33;64.31;98141.28;4950632;28;20309;-58
2021/12/02 08:37:25;;;;;;;5.68;2.67;;;;;;;-2.14;64.95;98137.16;4957979;28;20039;-57
2021/12/02 08:40:15;;;;;;;5.93;2.00;;;;;;;-2.25;64.98;98128.66;4953990;28;20102;-57
2021/12/02 08:43:03;;;;;;;3.63;2.15;;;;;;;-1.97;64.89;98138.91;4959512;29;20077;-57
2021/12/02 08:45:49;;;;;;;4.15;2.40;;;;;;;-1.95;66.55;98148.22;4958871;29;20031;-57
2021/12/02 08:48:35;;;;;;;6.25;2.80;;;;;;;-2.17;65.68;98147.25;4960542;29;20029;-58
2021/12/02 08:51:23;;;;;;;9.48;3.10;;;;;;;-2.42;64.88;98136.19;4954863;29;20027;-56
2021/12/02 08:54:09;;;;;;;5.75;3.45;;;;;;;-2.20;66.57;98133.75;4958989;28;20041;-57
2021/12/02 08:56:55;;;;;;;7.35;2.83;;;;;;;-2.00;66.07;98138.88;4962501;28;20167;-58
2021/12/02 08:59:43;;;;;;;4.55;2.90;;;;;;;-1.94;67.13;98144.84;4961186;29;20027;-57
2021/12/02 09:02:29;;;;;;;5.85;2.78;;;;;;;-1.88;65.90;98145.69;4944097;29;20038;-57
2021/12/02 09:05:15;;;;;;;6.45;3.35;;;;;;;-2.27;65.39;98135.38;4961203;29;20031;-57
2021/12/02 09:08:02;;;;;;;5.97;3.38;;;;;;;-2.50;66.11;98137.81;4960913;29;20062;-57
2021/12/02 09:10:48;;;;;;;8.02;3.25;;;;;;;-2.53;66.20;98131.03;4945264;29;20106;-57
2021/12/02 09:13:34;;;;;;;4.30;3.03;;;;;;;-2.47;66.18;98122.63;4945996;29;20019;-58
2021/12/02 09:16:19;;;;;;;5.60;3.55;;;;;;;-2.53;65.91;98118.38;4950838;28;20095;-58
2021/12/02 09:19:06;;;;;;;7.85;3.22;;;;;;;-2.47;66.30;98118.38;4945063;29;20031;-57
2021/12/02 09:21:52;;;;;;;4.88;3.20;;;;;;;-2.38;65.72;98125.22;4947351;29;20035;-57
2021/12/02 09:24:39;;;;;;;7.57;2.78;;;;;;;-2.19;68.35;98125.31;4959171;29;20051;-57
2021/12/02 09:27:25;;;;;;;4.50;2.72;;;;;;;-2.09;68.07;98120.25;4961613;29;20062;-57
2021/12/02 09:30:12;;;;;;;3.47;2.60;;;;;;;-1.92;67.64;98124.56;4961074;28;20212;-57
2021/12/02 09:32:58;;;;;;;3.05;2.40;;;;;;;-1.88;65.73;98133.88;4961080;29;20082;-57
2021/12/02 09:35:44;;;;;;;5.03;2.85;;;;;;;-2.03;66.57;98136.34;4958281;29;20091;-56
2021/12/02 09:38:30;;;;;;;4.20;3.00;;;;;;;-1.86;66.74;98131.34;4949127;29;20045;-57
2021/12/02 09:41:17;;;;;;;8.60;3.33;;;;;;;-1.89;67.64;98129.63;4959303;29;20359;-58
2021/12/02 09:44:04;;;;;;;5.88;3.15;;;;;;;-1.92;66.65;98122.00;4960370;28;20071;-57
2021/12/02 09:46:50;;;;;;;6.38;3.20;;;;;;;-2.09;66.00;98120.25;4963080;29;20023;-57
2021/12/02 09:49:37;;;;;;;4.05;3.00;;;;;;;-1.88;67.34;98115.25;4945201;29;20023;-58
2021/12/02 09:52:30;;;;;;;8.65;3.40;;;;;;;-2.05;66.10;98103.38;4956148;29;20031;-56
2021/12/02 09:58:07;;;;;;;5.22;2.90;;;;;;;-2.45;66.87;98098.16;4953963;29;20028;-58
2021/12/02 10:01:12;;;;;;;6.10;2.97;;;;;;;-2.42;67.80;98090.56;4960284;29;20023;-58
2021/12/02 10:04:01;;;;;;;5.75;2.95;;;;;;;-2.34;68.15;98088.88;4963772;28;20348;-58
2021/12/02 10:06:47;;;;;;;5.00;3.00;;;;;;;-2.38;67.25;98096.47;4946710;28;20039;-57
2021/12/02 10:09:50;;;;;;;3.55;2.50;;;;;;;-2.73;66.66;98016.91;4959842;28;20341;-57
2021/12/02 10:12:41;;;;;;;3.92;2.92;;;;;;;-2.35;67.40;98089.75;4964735;29;20149;-59
2021/12/02 10:15:29;;;;;;;4.38;3.08;;;;;;;-2.23;67.86;98099.06;4965007;28;20036;-58
2021/12/02 10:18:17;;;;;;;4.60;2.85;;;;;;;-2.15;66.60;98081.34;4963979;29;20042;-58
2021/12/02 10:21:22;;;;;;;5.25;2.92;;;;;;;-2.41;67.78;98006.06;4962459;28;20027;-58
2021/12/02 10:24:14;;;;;;;4.43;2.80;;;;;;;-2.48;65.53;98014.47;4952688;28;20039;-58
2021/12/02 10:27:05;;;;;;;6.55;3.30;;;;;;;-2.30;66.96;98098.19;4962592;29;20027;-58
2021/12/02 10:29:51;;;;;;;5.03;3.45;;;;;;;-2.30;67.70;98082.97;4962192;29;20027;-57
2021/12/02 10:32:49;;;;;;;3.85;2.75;;;;;;;-2.62;67.75;98012.75;4946800;29;20062;-57
2021/12/02 10:35:46;;;;;;;4.90;2.97;;;;;;;-2.01;67.64;98105.09;4948505;29;20019;-57
2021/12/02 10:38:45;;;;;;;6.50;3.35;;;;;;;-2.39;66.59;98055.06;4972615;28;20059;-58
2021/12/02 10:41:31;;;;;;;7.35;3.28;;;;;;;-2.03;66.85;98078.84;4958921;29;20082;-58
2021/12/02 10:44:19;;;;;;;6.13;3.38;;;;;;;-1.96;67.54;98072.13;4959432;29;20074;-58
2021/12/02 10:47:10;;;;;;;5.00;3.53;;;;;;;-2.26;67.33;98073.72;4963037;29;20024;-58
2021/12/02 10:49:58;;;;;;;7.60;3.80;;;;;;;-2.61;66.59;97989.13;4950867;28;20057;-57
2021/12/02 10:52:45;;;;;;;4.38;3.53;;;;;;;-2.00;68.10;98063.63;4962391;29;20094;-57
2021/12/02 10:55:32;;;;;;;4.97;3.75;;;;;;;-1.93;67.80;98054.34;4962624;28;20082;-57
2021/12/02 10:58:30;;;;;;;4.53;3.25;;;;;;;-2.29;67.43;97987.50;4964706;28;20038;-58
2021/12/02 11:01:39;;;;;;;6.40;3.70;;;;;;;-2.01;66.94;98051.81;4964268;29;20103;-58
2021/12/02 11:04:27;;;;;;;4.85;3.33;;;;;;;-2.15;66.10;98045.84;4949609;29;20058;-57
2021/12/02 11:07:26;;;;;;;4.93;3.60;;;;;;;-2.53;66.85;97976.47;4952326;29;20102;-58
2021/12/02 11:10:15;;;;;;;5.53;3.45;;;;;;;-2.68;67.10;97972.19;4961387;29;20023;-57
2021/12/02 11:13:02;;;;;;;5.97;3.42;;;;;;;-2.14;67.28;98042.47;4961160;29;20042;-59
2021/12/02 11:15:48;;;;;;;6.18;3.80;;;;;;;-2.15;66.41;98046.72;4962390;29;20217;-57
2021/12/02 11:18:35;;;;;;;4.32;3.28;;;;;;;-2.13;66.40;98049.25;4964613;28;20020;-58
2021/12/02 11:21:21;;;;;;;6.57;3.97;;;;;;;-2.02;67.41;98046.72;4962363;29;20027;-58
2021/12/02 11:24:08;;;;;;;5.45;3.75;;;;;;;-1.82;67.65;98041.72;4961311;29;20034;-58
2021/12/02 11:27:17;;;;;;;6.97;4.35;;;;;;;-2.21;67.60;97974.84;4963983;29;20037;-58
2021/12/02 11:30:05;;;;;;;7.63;4.20;;;;;;;-1.97;68.22;98039.97;4961032;29;20031;-58
2021/12/02 11:32:51;;;;;;;9.20;5.07;;;;;;;-1.93;68.24;98032.38;4961718;29;20078;-57
2021/12/02 11:35:44;;;;;;;6.78;3.72;;;;;;;-2.10;68.51;98023.88;4960962;29;20023;-58
2021/12/02 11:38:32;;;;;;;7.97;5.10;;;;;;;-2.17;70.06;98023.03;4962375;29;20031;-59
2021/12/02 11:41:19;;;;;;;6.95;4.25;;;;;;;-1.98;70.07;98016.31;4962850;28;20074;-59
2021/12/02 11:44:05;;;;;;;5.18;3.70;;;;;;;-2.30;69.42;98014.53;4955202;29;20046;-59
2021/12/02 11:46:51;;;;;;;5.88;3.65;;;;;;;-2.14;71.41;98014.56;4962146;29;20034;-58
2021/12/02 11:49:37;;;;;;;5.10;3.42;;;;;;;-1.98;71.77;98010.38;4960971;29;20054;-58
2021/12/02 11:52:23;;;;;;;5.78;3.50;;;;;;;-1.96;70.74;97994.31;4963150;29;20063;-58
2021/12/02 11:55:25;;;;;;;5.25;3.53;;;;;;;-2.65;71.69;97953.59;4944275;29;20268;-58
2021/12/02 11:58:11;;;;;;;5.55;3.75;;;;;;;-2.35;72.52;97990.88;4946443;29;20095;-58
2021/12/02 12:00:58;;;;;;;6.03;3.15;;;;;;;-2.27;71.92;97988.34;4961436;28;20094;-58
2021/12/02 12:04:09;;;;;;;6.13;3.78;;;;;;;-2.67;72.89;97910.53;4949270;29;20143;-56
2021/12/02 12:07:14;;;;;;;4.78;3.25;;;;;;;-2.31;73.51;97969.78;4962009;28;20038;-58
2021/12/02 12:10:14;;;;;;;7.28;3.67;;;;;;;-2.09;72.95;97974.88;4954924;29;20094;-59
2021/12/02 12:13:21;;;;;;;7.85;3.65;;;;;;;-2.08;72.83;97999.41;4953639;28;20206;-58
2021/12/02 12:16:29;;;;;;;6.30;3.65;;;;;;;-2.48;73.66;97918.19;4960544;29;20094;-59
2021/12/02 12:19:20;;;;;;;10.82;3.70;;;;;;;-2.18;74.59;97977.38;4961959;29;20299;-58
2021/12/02 12:22:10;;;;;;;8.18;4.05;;;;;;;-2.36;75.46;97973.97;4962476;29;20035;-59
2021/12/02 12:25:03;;;;;;;6.72;3.78;;;;;;;-2.21;75.83;97954.56;4952411;29;20049;-58
2021/12/02 12:27:57;;;;;;;6.63;3.60;;;;;;;-2.35;75.75;97980.75;4945711;29;20036;-58
2021/12/02 12:30:43;;;;;;;6.55;3.33;;;;;;;-2.61;76.88;97986.59;4957720;28;20027;-59
2021/12/02 12:33:38;;;;;;;8.05;3.45;;;;;;;-2.49;77.16;97985.75;4972922;28;20027;-58
2021/12/02 12:36:44;;;;;;;7.43;3.63;;;;;;;-2.49;78.19;97978.16;4947982;29;20098;-58
2021/12/02 12:39:33;;;;;;;8.90;4.60;;;;;;;-2.38;78.56;97980.75;4949455;29;20023;-58
2021/12/02 12:42:22;;;;;;;9.60;4.50;;;;;;;-2.20;78.50;97976.53;4961190;29;20205;-57
2021/12/02 12:45:23;;;;;;;7.07;3.70;;;;;;;-2.34;79.22;97962.13;4952849;29;20059;-57
2021/12/02 12:48:31;;;;;;;6.72;3.60;;;;;;;-2.20;78.88;97972.31;4950991;29;20133;-58
2021/12/02 12:51:35;;;;;;;7.15;3.72;;;;;;;-2.32;78.93;97970.59;4960151;29;20038;-58
2021/12/02 12:54:23;;;;;;;5.63;3.88;;;;;;;-2.10;78.88;97952.88;4959929;29;20119;-59
2021/12/02 12:57:09;;;;;;;9.60;4.32;;;;;;;-2.24;79.08;97939.34;4943016;29;20038;-57
2021/12/02 12:59:55;;;;;;;6.22;3.70;;;;;;;-2.34;79.76;97939.31;4960958;29;20038;-59
2021/12/02 13:02:53;;;;;;;7.80;3.92;;;;;;;-2.67;79.62;97920.66;4960063;28;20086;-58
2021/12/02 13:05:46;;;;;;;8.13;3.53;;;;;;;-2.67;80.65;97946.00;4944512;29;20056;-59
2021/12/02 13:08:43;;;;;;;6.40;3.95;;;;;;;-2.99;80.98;97870.78;4945143;29;20076;-59
2021/12/02 13:11:32;;;;;;;7.38;3.65;;;;;;;-2.97;80.63;97876.69;4961118;29;20379;-58
2021/12/02 13:14:20;;;;;;;6.35;3.45;;;;;;;-2.50;80.05;97973.09;4961136;29;20236;-58
2021/12/02 13:17:37;;;;;;;5.25;3.95;;;;;;;-2.34;81.41;97941.03;4961350;29;20260;-58
2021/12/02 13:20:29;;;;;;;6.05;3.55;;;;;;;-2.68;81.26;97890.25;4959424;29;20024;-58
2021/12/02 13:23:15;;;;;;;5.47;3.88;;;;;;;-2.38;80.32;97922.44;4961132;29;20027;-59
2021/12/02 13:26:07;;;;;;;7.43;4.60;;;;;;;-3.00;82.08;97858.94;4950797;29;20313;-59
2021/12/02 13:28:57;;;;;;;;;;;;;;;-2.54;82.45;97929.16;4945360;28;20344;-58
2021/12/02 13:31:48;;;;;;;6.88;3.83;;;;;;;-2.70;82.04;97886.91;4947065;29;19977;-59
2021/12/02 13:34:35;;;;;;;5.68;3.53;;;;;;;-2.53;82.78;97927.47;4958419;29;20039;-59
2021/12/02 13:37:20;;;;;;;8.25;3.83;;;;;;;-2.49;82.57;97926.66;4960383;29;20102;-58